EDDCLGKO

Guest
Details From EDDC - Dresden
To LGKO - Kos
Flight Number -
Tags Generated
Created
Modified
Stats Distance 1,032 nm / 1,911 km
Max Altitude 0 ft / 0 m
Waypoints 6
Social Downloads 2
Likes 0
Share VATSIM

Download

Looking for another format? Having issues loading an existing format? Contact us
Advertisement - Login to hide

Notes

Generated

Route

EDDC OB011 NEPOS ASKOS KOS09 LGKO

ID Type Via Altitude Latitude Longitude Leg Dist Tot Dist Heading (true) Name
O EDDC APT - 0 ft / 0 m 51.12425˚ 13.75544˚ - 0 nm - -
OB011 FIX - 0 ft / 0 m 48.02139˚ 17.44289˚ 235 nm 235 nm 141° / 144° -
NEPOS FIX - 0 ft / 0 m 44.00622˚ 21.43761˚ 293 nm 528 nm 144° / 147° -
ASKOS FIX - 0 ft / 0 m 40.63806˚ 24.27028˚ 238 nm 766 nm 147° / 149° -
KOS09 FIX - 0 ft / 0 m 36.92393˚ 27.00488˚ 257 nm 1023 nm 149° / 151° -
O LGKO APT - 0 ft / 0 m 36.80364˚ 27.08364˚ 8 nm 1031 nm 152° / 152° -

Altitude Profile

Advertisement - Login to hide

Weather


0- 5 10 15 20 25 30 35+ Temperature / ° C

Clouds and Precipitation
Forecast for 2018-05-26 06:00 UTC. Updated an hour ago

Ground ~20,000 ft ~40,000 ft Winds

EDDC

Details ICAO EDDC (DRS)
Name Dresden
Region Germany - Civil
Timezone Europe/Berlin (UTC+2.0)
Stats Elevation 752 ft / 229 m (AMSL)
Location 51.134366° 13.768065°
Runways 1
Magnetic Variation 3.857° E

METAR

EDDC 260620Z VRB02KT CAVOK 18/11 Q1022 NOSIG

Decode

TAF

TAF EDDC 260500Z 2606/2706 09004KT CAVOK= TAF EDDE 260500Z 2606/2706 08004KT CAVOK

Decode

Departure Runways

ID Width Length Bearing (true) Bearing (mag) Surface Threshold Offset Overrun Length
04 197 ft / 60 m 9,348 ft / 2,849 m 40.74° 36.88° Concrete 0 ft / 0 m 0 ft / 0 m
22 197 ft / 60 m 9,348 ft / 2,849 m 220.76° 216.90° Concrete 984 ft / 300 m 0 ft / 0 m

LGKO

Details ICAO LGKO (KGS)
Name KOS
Region Greece
Timezone Europe/Athens (UTC+3.0)
Stats Elevation 412 ft / 126 m (AMSL)
Location 36.794403° 27.090764°
Runways 1
Magnetic Variation 4.766° E

METAR

LGKO 260620Z 34010KT 9999 FEW018 22/15 Q1008

Decode

TAF

TAF LGKO 260500Z 2606/2706 33012KT 9999 SCT018 BECMG 2612/2614 13010KT BECMG 2616/2618 VRB05KT PROB30 TEMPO 2609/2616 5000 SHRA FEW018CB SCT020 BKN050

Decode

Destination Runways

ID Width Length Bearing (true) Bearing (mag) Surface Threshold Offset Overrun Length
14 148 ft / 45 m 7,923 ft / 2,415 m 148.29° 143.52° Asphalt 0 ft / 0 m 240 ft / 73 m
32 148 ft / 45 m 7,923 ft / 2,415 m 328.30° 323.53° Asphalt 0 ft / 0 m 205 ft / 62 m

Popular Alternatives